createdAt,value
2018-05-24T00:01:29.701Z,56.20
2018-05-24T00:03:32.132Z,56.20
2018-05-24T00:05:35.327Z,56.30
2018-05-24T00:07:38.754Z,56.30
2018-05-24T00:09:42.044Z,56.30
2018-05-24T00:11:44.517Z,56.20
2018-05-24T00:13:46.993Z,56.00
2018-05-24T00:15:49.420Z,56.10
2018-05-24T00:17:52.636Z,56.20
2018-05-24T00:19:55.055Z,56.30
2018-05-24T00:21:58.245Z,55.90
2018-05-24T00:24:00.681Z,55.90
2018-05-24T00:26:03.106Z,55.90
2018-05-24T00:28:06.304Z,55.80
2018-05-24T00:30:08.728Z,55.80
2018-05-24T00:32:11.168Z,56.00
2018-05-24T00:34:13.589Z,56.00
2018-05-24T00:36:16.782Z,55.80
2018-05-24T00:38:19.996Z,55.70
2018-05-24T00:40:22.412Z,55.70
2018-05-24T00:42:24.840Z,55.30
2018-05-24T00:44:27.256Z,55.40
2018-05-24T00:46:29.692Z,55.20
2018-05-24T00:48:32.137Z,55.10
2018-05-24T00:50:34.616Z,55.10
2018-05-24T00:52:37.073Z,55.00
2018-05-24T00:54:39.637Z,55.10
2018-05-24T00:56:42.001Z,55.30
2018-05-24T00:58:45.189Z,55.30
2018-05-24T01:00:47.679Z,55.40
2018-05-24T01:02:50.156Z,55.50
2018-05-24T01:04:52.589Z,55.80
2018-05-24T01:06:55.797Z,55.90
2018-05-24T01:08:58.287Z,55.80
2018-05-24T01:11:00.712Z,56.30
2018-05-24T01:13:03.912Z,56.10
2018-05-24T01:15:07.128Z,56.50
2018-05-24T01:17:09.565Z,56.50
2018-05-24T01:19:12.757Z,56.80
2018-05-24T01:21:15.956Z,56.90
2018-05-24T01:23:18.463Z,56.80
2018-05-24T01:25:20.897Z,57.20
2018-05-24T01:27:23.333Z,57.40
2018-05-24T01:29:25.752Z,57.70
2018-05-24T01:31:28.216Z,58.10
2018-05-24T01:33:30.669Z,58.10
2018-05-24T01:35:33.092Z,58.30
2018-05-24T01:37:47.335Z,58.30
2018-05-24T01:39:49.765Z,58.50
2018-05-24T01:41:52.197Z,58.90
2018-05-24T01:43:54.716Z,58.80
2018-05-24T01:45:57.164Z,59.20
2018-05-24T01:47:59.605Z,59.30
2018-05-24T01:50:02.141Z,59.80
2018-05-24T01:52:04.596Z,59.50
2018-05-24T01:54:07.800Z,59.60
2018-05-24T01:56:10.224Z,59.50
2018-05-24T01:58:13.441Z,59.50
2018-05-24T02:00:15.982Z,59.50
2018-05-24T02:02:18.363Z,59.90
2018-05-24T02:04:20.953Z,59.80
2018-05-24T02:06:23.424Z,60.20
2018-05-24T02:08:25.857Z,60.40
2018-05-24T02:10:29.092Z,60.60
2018-05-24T02:12:31.529Z,60.60
2018-05-24T02:14:33.951Z,60.80
2018-05-24T02:16:36.381Z,60.70
2018-05-24T02:18:38.862Z,61.50
2018-05-24T02:20:41.285Z,62.30
2018-05-24T02:22:44.480Z,61.90
2018-05-24T02:24:47.677Z,61.60
2018-05-24T02:26:50.870Z,62.40
2018-05-24T02:28:53.296Z,62.40
2018-05-24T02:30:55.829Z,62.50
2018-05-24T02:32:58.273Z,62.90
2018-05-24T02:35:01.493Z,63.30
2018-05-24T02:37:03.926Z,63.40
2018-05-24T02:39:07.136Z,64.10
2018-05-24T02:41:09.625Z,64.10
2018-05-24T02:43:12.071Z,64.00
2018-05-24T02:45:15.256Z,64.20
2018-05-24T02:47:17.685Z,64.20
2018-05-24T02:49:21.735Z,65.00
2018-05-24T02:51:24.921Z,64.50
2018-05-24T02:53:27.408Z,64.50
2018-05-24T02:55:29.881Z,64.70
2018-05-24T02:57:32.326Z,64.70
2018-05-24T02:59:34.765Z,64.60
2018-05-24T03:01:37.376Z,65.20
2018-05-24T03:03:39.724Z,65.30
2018-05-24T03:05:42.947Z,65.80
2018-05-24T03:07:45.417Z,65.90
2018-05-24T03:09:47.885Z,65.80
2018-05-24T03:11:50.325Z,65.70
2018-05-24T03:13:53.524Z,66.40
2018-05-24T03:15:55.949Z,66.40
2018-05-24T03:17:58.381Z,66.60
2018-05-24T03:20:00.804Z,66.70
2018-05-24T03:22:03.992Z,67.90
2018-05-24T03:24:07.221Z,68.10
2018-05-24T03:26:09.636Z,67.50
2018-05-24T03:28:12.077Z,67.70
2018-05-24T03:30:14.534Z,67.80
2018-05-24T03:32:16.963Z,67.70
2018-05-24T03:34:20.184Z,67.50
2018-05-24T03:36:22.656Z,67.50
2018-05-24T03:38:25.095Z,68.70
2018-05-24T03:40:28.293Z,68.40
2018-05-24T03:42:30.718Z,68.50
2018-05-24T03:44:33.156Z,68.70
2018-05-24T03:46:35.649Z,69.80
2018-05-24T03:48:38.125Z,70.00
2018-05-24T03:50:40.521Z,70.10
2018-05-24T03:52:42.937Z,70.00
2018-05-24T03:54:45.380Z,69.80
2018-05-24T03:56:48.573Z,69.50
2018-05-24T03:58:51.064Z,69.50
2018-05-24T04:01:05.412Z,69.60
2018-05-24T04:03:19.970Z,69.70
2018-05-24T04:05:22.433Z,69.10
2018-05-24T04:07:24.865Z,68.50
2018-05-24T04:09:28.069Z,68.40
2018-05-24T04:11:30.561Z,68.40
2018-05-24T04:13:33.821Z,68.60
2018-05-24T04:15:37.120Z,69.00
2018-05-24T04:17:39.486Z,69.00
2018-05-24T04:19:41.958Z,68.70
2018-05-24T04:21:44.376Z,68.10
2018-05-24T04:23:46.924Z,68.90
2018-05-24T04:25:49.348Z,68.80
2018-05-24T04:27:52.532Z,68.50
2018-05-24T04:29:55.768Z,68.20
2018-05-24T04:31:58.188Z,68.20
2018-05-24T04:34:01.389Z,69.00
2018-05-24T04:36:04.596Z,70.00
2018-05-24T04:38:07.081Z,70.10
2018-05-24T04:40:09.508Z,70.50
2018-05-24T04:42:13.466Z,72.00
2018-05-24T04:44:15.928Z,72.10
2018-05-24T04:46:18.348Z,71.90
2018-05-24T04:48:21.541Z,71.40
2018-05-24T04:50:24.738Z,71.90
2018-05-24T04:52:27.952Z,71.50
2018-05-24T04:54:30.385Z,72.30
2018-05-24T04:56:33.584Z,72.00
2018-05-24T04:58:36.800Z,72.30
2018-05-24T05:00:39.270Z,72.30
2018-05-24T05:02:41.702Z,71.20
2018-05-24T05:04:44.927Z,71.20
2018-05-24T05:06:47.399Z,71.20
2018-05-24T05:08:49.823Z,71.30
2018-05-24T05:10:53.048Z,69.30
2018-05-24T05:12:55.477Z,69.30
2018-05-24T05:14:58.708Z,70.30
2018-05-24T05:17:01.137Z,70.30
2018-05-24T05:19:04.320Z,69.40
2018-05-24T05:21:06.836Z,69.30
2018-05-24T05:23:09.329Z,69.40
2018-05-24T05:25:11.808Z,70.50
2018-05-24T05:27:14.196Z,71.20
2018-05-24T05:29:16.716Z,70.30
2018-05-24T05:31:19.188Z,69.10
2018-05-24T05:33:21.609Z,70.10
2018-05-24T05:35:24.932Z,70.20
2018-05-24T05:37:28.132Z,69.60
2018-05-24T05:39:31.309Z,67.90
2018-05-24T05:41:33.729Z,67.90
2018-05-24T05:43:36.160Z,67.40
2018-05-24T05:45:38.633Z,66.90
2018-05-24T05:47:41.083Z,67.00
2018-05-24T05:49:44.289Z,64.20
2018-05-24T05:51:46.712Z,64.20
2018-05-24T05:53:49.929Z,63.90
2018-05-24T05:55:52.363Z,63.90
2018-05-24T05:57:55.548Z,64.40
2018-05-24T05:59:58.073Z,64.10
2018-05-24T06:02:00.625Z,64.50
2018-05-24T06:04:02.940Z,64.60
2018-05-24T06:06:05.484Z,63.60
2018-05-24T06:08:07.912Z,62.20
2018-05-24T06:10:11.153Z,61.40
2018-05-24T06:12:13.624Z,61.40
2018-05-24T06:14:16.044Z,61.10
2018-05-24T06:16:19.268Z,60.30
2018-05-24T06:18:21.746Z,60.10
2018-05-24T06:20:24.181Z,60.20
2018-05-24T06:22:26.677Z,58.70
2018-05-24T06:24:29.101Z,58.60
2018-05-24T06:26:31.537Z,58.30
2018-05-24T06:28:34.066Z,58.70
2018-05-24T06:30:37.182Z,58.40
2018-05-24T06:32:39.600Z,58.50
2018-05-24T06:34:42.840Z,60.70
2018-05-24T06:36:45.309Z,60.60
2018-05-24T06:38:47.724Z,62.10
2018-05-24T06:40:50.924Z,61.10
2018-05-24T06:42:54.141Z,61.10
2018-05-24T06:44:56.578Z,61.20
2018-05-24T06:46:59.888Z,59.80
2018-05-24T06:49:02.376Z,59.80
2018-05-24T06:51:04.851Z,58.50
2018-05-24T06:53:08.147Z,58.50
2018-05-24T06:55:13.686Z,57.50
2018-05-24T06:57:16.121Z,57.30
2018-05-24T06:59:19.297Z,56.00
2018-05-24T07:01:22.501Z,54.20
2018-05-24T07:03:24.930Z,54.00
2018-05-24T07:05:27.365Z,55.40
2018-05-24T07:07:29.792Z,52.40
2018-05-24T07:09:33.016Z,53.20
2018-05-24T07:11:35.505Z,53.30
2018-05-24T07:13:37.956Z,54.30
2018-05-24T07:15:40.385Z,55.00
2018-05-24T07:17:43.622Z,52.60
2018-05-24T07:19:46.087Z,52.60
2018-05-24T07:21:48.760Z,53.20
2018-05-24T07:23:51.232Z,53.10
2018-05-24T07:25:53.697Z,52.80
2018-05-24T07:27:56.135Z,53.80
2018-05-24T07:29:59.321Z,53.60
2018-05-24T07:32:02.558Z,53.10
2018-05-24T07:34:05.016Z,53.00
2018-05-24T07:36:07.488Z,53.80
2018-05-24T07:38:09.957Z,54.40
2018-05-24T07:40:12.441Z,53.30
2018-05-24T07:42:14.893Z,53.20
2018-05-24T07:44:17.322Z,54.30
2018-05-24T07:46:20.560Z,54.00
2018-05-24T07:48:23.029Z,53.90
2018-05-24T07:50:25.461Z,55.30
2018-05-24T07:52:28.680Z,56.70
2018-05-24T07:54:31.120Z,56.70
2018-05-24T07:56:34.317Z,57.20
2018-05-24T07:58:36.745Z,57.20
2018-05-24T08:00:39.276Z,57.40
2018-05-24T08:02:41.709Z,57.10
2018-05-24T08:04:44.941Z,57.10
2018-05-24T08:06:47.378Z,57.10
2018-05-24T08:08:50.569Z,57.40
2018-05-24T08:10:53.060Z,57.60
2018-05-24T08:12:55.489Z,56.60
2018-05-24T08:14:58.672Z,55.70
2018-05-24T08:17:01.884Z,53.70
2018-05-24T08:19:05.101Z,54.70
2018-05-24T08:21:07.553Z,54.70
2018-05-24T08:23:09.976Z,55.40
2018-05-24T08:25:12.426Z,55.10
2018-05-24T08:27:14.872Z,55.10
2018-05-24T08:29:17.354Z,54.00
2018-05-24T08:31:19.813Z,53.20
2018-05-24T08:33:22.244Z,52.60
2018-05-24T08:35:25.479Z,52.90
2018-05-24T08:37:27.916Z,52.90
2018-05-24T08:39:31.132Z,52.30
2018-05-24T08:41:33.598Z,52.30
2018-05-24T08:43:36.069Z,51.90
2018-05-24T08:45:38.494Z,53.30
2018-05-24T08:47:41.017Z,53.00
2018-05-24T08:49:43.486Z,54.20
2018-05-24T08:51:45.923Z,52.80
2018-05-24T08:53:49.142Z,51.70
2018-05-24T08:55:51.784Z,51.70
2018-05-24T08:57:54.988Z,52.30
2018-05-24T08:59:57.470Z,52.30
2018-05-24T09:01:59.900Z,52.60
2018-05-24T09:04:03.204Z,54.80
2018-05-24T09:06:05.624Z,54.80
2018-05-24T09:08:08.069Z,55.30
2018-05-24T09:10:10.644Z,56.70
2018-05-24T09:12:13.082Z,55.50
2018-05-24T09:14:16.273Z,54.50
2018-05-24T09:16:18.769Z,54.50
2018-05-24T09:18:21.244Z,55.00
2018-05-24T09:20:23.668Z,54.90
2018-05-24T09:22:26.888Z,53.20
2018-05-24T09:24:29.319Z,53.20
2018-05-24T09:26:32.516Z,53.00
2018-05-24T09:28:35.704Z,52.40
2018-05-24T09:30:38.928Z,51.40
2018-05-24T09:32:41.365Z,51.40
2018-05-24T09:34:44.603Z,51.40
2018-05-24T09:36:47.047Z,51.40
2018-05-24T09:38:49.525Z,52.40
2018-05-24T09:40:51.958Z,53.30
2018-05-24T09:42:55.184Z,53.00
2018-05-24T09:44:57.620Z,53.00
2018-05-24T09:47:00.840Z,51.90
2018-05-24T09:49:03.282Z,51.90
2018-05-24T09:51:06.497Z,52.30
2018-05-24T09:53:08.936Z,52.30
2018-05-24T09:55:12.185Z,52.80
2018-05-24T09:57:14.608Z,52.80
2018-05-24T09:59:17.101Z,53.30
2018-05-24T10:01:19.523Z,52.30
2018-05-24T10:03:22.712Z,51.70
2018-05-24T10:05:25.937Z,51.70
2018-05-24T10:07:28.380Z,51.70
2018-05-24T10:09:31.581Z,53.00
2018-05-24T10:11:34.013Z,53.00
2018-05-24T10:13:37.208Z,52.70
2018-05-24T10:15:40.449Z,53.10
2018-05-24T10:17:42.882Z,53.10
2018-05-24T10:19:46.197Z,54.40
2018-05-24T10:21:48.621Z,54.40
2018-05-24T10:23:51.820Z,54.30
2018-05-24T10:25:55.024Z,53.90
2018-05-24T10:27:58.213Z,55.20
2018-05-24T10:30:00.716Z,55.20
2018-05-24T10:32:03.133Z,55.60
2018-05-24T10:34:06.378Z,55.30
2018-05-24T10:36:08.880Z,55.30
2018-05-24T10:38:11.296Z,55.10
2018-05-24T10:40:13.721Z,55.50
2018-05-24T10:42:16.184Z,56.20
2018-05-24T10:44:19.384Z,56.10
2018-05-24T10:46:22.576Z,56.90
2018-05-24T10:48:25.772Z,57.90
2018-05-24T10:50:29.100Z,57.50
2018-05-24T10:52:31.565Z,57.50
2018-05-24T10:54:34.000Z,58.40
2018-05-24T10:56:37.276Z,58.30
2018-05-24T10:58:39.656Z,58.20
2018-05-24T11:00:42.889Z,55.30
2018-05-24T11:02:45.324Z,55.20
2018-05-24T11:04:47.825Z,54.40
2018-05-24T11:06:51.216Z,54.20
2018-05-24T11:08:53.648Z,53.40
2018-05-24T11:10:56.848Z,51.50
2018-05-24T11:12:59.422Z,51.50
2018-05-24T11:15:02.597Z,50.90
2018-05-24T11:17:05.784Z,51.00
2018-05-24T11:19:08.228Z,50.90
2018-05-24T11:21:11.474Z,50.80
2018-05-24T11:23:13.949Z,50.70
2018-05-24T11:25:16.427Z,50.90
2018-05-24T11:27:18.897Z,51.40
2018-05-24T11:29:21.324Z,52.10
2018-05-24T11:31:24.519Z,52.70
2018-05-24T11:33:26.979Z,52.70
2018-05-24T11:35:30.194Z,51.70
2018-05-24T11:37:32.666Z,51.80
2018-05-24T11:39:35.139Z,51.50
2018-05-24T11:41:37.605Z,52.00
2018-05-24T11:43:40.041Z,51.40
2018-05-24T11:45:43.236Z,50.70
2018-05-24T11:47:45.728Z,50.60
2018-05-24T11:49:48.173Z,50.00
2018-05-24T11:51:51.378Z,51.60
2018-05-24T11:53:53.792Z,51.60
2018-05-24T11:55:56.266Z,53.00
2018-05-24T11:57:58.801Z,53.20
2018-05-24T12:00:01.280Z,54.20
2018-05-24T12:02:03.708Z,55.40
2018-05-24T12:04:06.909Z,56.00
2018-05-24T12:06:09.405Z,56.10
2018-05-24T12:08:11.840Z,56.20
2018-05-24T12:10:14.340Z,55.80
2018-05-24T12:12:16.776Z,55.40
2018-05-24T12:14:19.973Z,55.10
2018-05-24T12:16:22.476Z,55.10
2018-05-24T12:18:24.918Z,55.10
2018-05-24T12:20:27.339Z,55.90
2018-05-24T12:22:29.878Z,55.60
2018-05-24T12:24:32.360Z,56.30
2018-05-24T12:26:34.788Z,58.10
2018-05-24T12:28:37.985Z,60.50
2018-05-24T12:30:40.404Z,60.50
2018-05-24T12:32:42.962Z,60.10
2018-05-24T12:34:45.444Z,58.90
2018-05-24T12:36:47.888Z,58.40
2018-05-24T12:38:50.325Z,58.50
2018-05-24T12:40:54.457Z,57.30
2018-05-24T12:42:56.938Z,57.20
2018-05-24T12:44:59.412Z,57.10
2018-05-24T12:47:01.824Z,57.20
2018-05-24T12:49:05.091Z,58.00
2018-05-24T12:51:08.250Z,57.20
2018-05-24T12:53:10.676Z,57.20
2018-05-24T12:55:13.916Z,60.80
2018-05-24T12:57:16.348Z,60.70
2018-05-24T12:59:18.776Z,62.00
2018-05-24T13:01:22.721Z,65.80
2018-05-24T13:03:25.945Z,65.80
2018-05-24T13:05:28.413Z,65.80
2018-05-24T13:07:30.883Z,66.40
2018-05-24T13:09:33.354Z,66.20
2018-05-24T13:11:35.800Z,64.50
2018-05-24T13:13:38.208Z,63.70
2018-05-24T13:15:40.644Z,64.30
2018-05-24T13:17:43.650Z,64.50
2018-05-24T13:19:46.086Z,64.10
2018-05-24T13:21:48.513Z,63.00
2018-05-24T13:23:50.958Z,64.00
2018-05-24T13:25:54.038Z,64.10
2018-05-24T13:27:56.468Z,64.20
2018-05-24T13:29:59.695Z,64.00
2018-05-24T13:32:02.120Z,64.00
2018-05-24T13:34:05.344Z,64.20
2018-05-24T13:36:07.811Z,64.20
2018-05-24T13:38:10.241Z,63.90
2018-05-24T13:40:13.469Z,65.20
2018-05-24T13:42:15.901Z,65.20
2018-05-24T13:44:19.100Z,65.50
2018-05-24T13:46:22.326Z,67.30
2018-05-24T13:48:24.756Z,67.40
2018-05-24T13:50:27.980Z,69.60
2018-05-24T13:52:30.444Z,69.60
2018-05-24T13:54:32.887Z,70.70
2018-05-24T13:56:36.113Z,73.00
2018-05-24T13:58:38.544Z,73.10
2018-05-24T14:00:41.757Z,74.60
2018-05-24T14:02:44.239Z,74.60
2018-05-24T14:04:46.683Z,75.30
2018-05-24T14:06:49.185Z,76.70
2018-05-24T14:08:51.612Z,78.20
2018-05-24T14:10:54.061Z,80.10
2018-05-24T14:12:56.504Z,80.00
2018-05-24T14:14:58.976Z,81.00
2018-05-24T14:17:01.393Z,80.60
2018-05-24T14:19:03.848Z,79.20
2018-05-24T14:21:07.058Z,80.90
2018-05-24T14:23:09.495Z,80.80
2018-05-24T14:25:12.028Z,80.80
2018-05-24T14:27:14.500Z,81.60
2018-05-24T14:29:16.952Z,82.30
2018-05-24T14:31:19.497Z,81.30
2018-05-24T14:33:22.716Z,82.40
2018-05-24T14:35:25.189Z,82.40
2018-05-24T14:37:27.627Z,83.60
2018-05-24T14:39:30.958Z,86.50
2018-05-24T14:41:33.399Z,86.50
2018-05-24T14:43:35.883Z,89.10
2018-05-24T14:45:38.335Z,89.20
2018-05-24T14:47:41.527Z,89.50
2018-05-24T14:49:44.017Z,89.50
2018-05-24T14:51:46.447Z,89.70
2018-05-24T14:53:49.684Z,91.80
2018-05-24T14:55:52.172Z,91.70
2018-05-24T14:57:54.625Z,92.50
2018-05-24T14:59:57.492Z,92.60
2018-05-24T15:01:59.964Z,92.50
2018-05-24T15:04:02.401Z,92.60
2018-05-24T15:06:05.625Z,92.70
2018-05-24T15:08:08.100Z,92.70
2018-05-24T15:10:10.545Z,93.00
2018-05-24T15:12:13.032Z,93.10
2018-05-24T15:14:15.514Z,92.60
2018-05-24T15:16:17.997Z,92.80
2018-05-24T15:18:20.424Z,93.50
2018-05-24T15:20:22.915Z,93.70
2018-05-24T15:22:25.347Z,93.90
2018-05-24T15:24:28.541Z,94.20
2018-05-24T15:26:31.053Z,94.30
2018-05-24T15:28:33.475Z,95.30
2018-05-24T15:30:36.678Z,97.40
2018-05-24T15:32:39.110Z,97.30
2018-05-24T15:34:41.653Z,96.90
2018-05-24T15:36:44.113Z,96.30
2018-05-24T15:38:46.581Z,95.80
2018-05-24T15:40:49.052Z,95.20
2018-05-24T15:42:51.485Z,94.90
2018-05-24T15:45:00.689Z,93.20
2018-05-24T15:47:03.897Z,92.40
2018-05-24T15:49:07.124Z,92.20
2018-05-24T15:51:09.592Z,92.20
2018-05-24T15:53:12.076Z,91.40
2018-05-24T15:55:14.504Z,91.00
2018-05-24T15:57:16.984Z,90.70
2018-05-24T15:59:20.192Z,89.70
2018-05-24T16:01:22.631Z,89.70
2018-05-24T16:03:25.831Z,88.80
2018-05-24T16:05:28.363Z,88.50
2018-05-24T16:07:30.780Z,89.30
2018-05-24T16:09:33.234Z,87.10
2018-05-24T16:11:36.121Z,88.50
2018-05-24T16:13:38.605Z,87.70
2018-05-24T16:15:41.041Z,86.40
2018-05-24T16:17:44.237Z,85.10
2018-05-24T16:19:47.458Z,84.40
2018-05-24T16:21:49.895Z,84.50
2018-05-24T16:23:53.090Z,81.30
2018-05-24T16:25:55.600Z,81.30
2018-05-24T16:27:58.017Z,83.10
2018-05-24T16:30:01.214Z,83.30
2018-05-24T16:32:03.654Z,83.30
2018-05-24T16:34:06.099Z,81.70
2018-05-24T16:36:08.544Z,82.60
2018-05-24T16:38:11.028Z,81.80
2018-05-24T16:40:13.505Z,82.50
2018-05-24T16:42:15.952Z,82.70
2018-05-24T16:44:18.390Z,82.80
2018-05-24T16:46:21.597Z,82.60
2018-05-24T16:48:24.800Z,83.00
2018-05-24T16:50:27.252Z,82.90
2018-05-24T16:52:29.740Z,83.70
2018-05-24T16:54:32.220Z,83.50
2018-05-24T16:56:35.380Z,84.40
2018-05-24T16:58:37.808Z,84.10
2018-05-24T17:00:41.750Z,84.50
2018-05-24T17:02:44.196Z,84.60
2018-05-24T17:04:47.395Z,84.80
2018-05-24T17:06:50.601Z,84.60
2018-05-24T17:08:53.024Z,84.60
2018-05-24T17:10:55.556Z,84.80
2018-05-24T17:12:58.028Z,84.80
2018-05-24T17:15:00.459Z,84.90
2018-05-24T17:17:03.692Z,84.80
2018-05-24T17:19:06.170Z,84.80
2018-05-24T17:21:08.592Z,85.40
2018-05-24T17:23:11.793Z,84.50
2018-05-24T17:25:14.220Z,84.40
2018-05-24T17:27:16.752Z,84.00
2018-05-24T17:29:19.228Z,83.00
2018-05-24T17:31:21.673Z,82.60
2018-05-24T17:33:24.100Z,82.20
2018-05-24T17:35:26.637Z,83.00
2018-05-24T17:37:29.107Z,82.20
2018-05-24T17:39:32.330Z,81.50
2018-05-24T17:41:34.843Z,81.40
2018-05-24T17:43:37.361Z,81.70
2018-05-24T17:45:39.765Z,82.90
2018-05-24T17:47:42.212Z,83.70
2018-05-24T17:49:44.663Z,84.50
2018-05-24T17:51:47.100Z,85.10
2018-05-24T17:53:49.592Z,86.20
2018-05-24T17:55:52.044Z,87.00
2018-05-24T17:57:54.517Z,88.00
2018-05-24T17:59:56.949Z,88.80
2018-05-24T18:02:00.183Z,90.10
2018-05-24T18:04:02.621Z,90.10
2018-05-24T18:06:05.817Z,90.70
2018-05-24T18:08:08.256Z,90.70
2018-05-24T18:10:11.459Z,91.20
2018-05-24T18:12:14.705Z,91.70
2018-05-24T18:14:17.140Z,91.70
2018-05-24T18:16:19.560Z,91.60
2018-05-24T18:18:22.000Z,91.70
2018-05-24T18:20:24.428Z,92.00
2018-05-24T18:22:26.936Z,92.20
2018-05-24T18:24:29.435Z,92.20
2018-05-24T18:26:31.869Z,92.60
2018-05-24T18:28:34.315Z,92.90
2018-05-24T18:30:37.505Z,93.50
2018-05-24T18:32:39.952Z,93.50
2018-05-24T18:34:43.157Z,94.10
2018-05-24T18:36:45.597Z,94.10
2018-05-24T18:38:48.036Z,94.50
2018-05-24T18:40:50.473Z,94.50
2018-05-24T18:42:52.970Z,95.00
2018-05-24T18:44:56.132Z,95.70
2018-05-24T18:46:58.569Z,95.70
2018-05-24T18:49:01.003Z,96.10
2018-05-24T18:51:03.525Z,96.20
2018-05-24T18:53:06.732Z,96.00
2018-05-24T18:55:09.320Z,96.00
2018-05-24T18:57:11.767Z,95.70
2018-05-24T18:59:14.197Z,95.20
2018-05-24T19:01:16.741Z,95.30
2018-05-24T19:03:19.181Z,95.20
2018-05-24T19:05:21.619Z,95.10
2018-05-24T19:07:24.141Z,94.90
2018-05-24T19:09:27.619Z,94.50
2018-05-24T19:11:30.116Z,95.00
2018-05-24T19:13:32.561Z,95.10
2018-05-24T19:15:34.977Z,94.90
2018-05-24T19:17:37.525Z,95.00
2018-05-24T19:19:39.975Z,94.80
2018-05-24T19:21:42.398Z,94.90
2018-05-24T19:23:44.847Z,94.90
2018-05-24T19:25:47.286Z,95.00
2018-05-24T19:27:49.716Z,95.10
2018-05-24T19:29:52.957Z,95.20
2018-05-24T19:31:55.427Z,95.10
2018-05-24T19:33:57.906Z,95.10
2018-05-24T19:36:00.364Z,95.20
2018-05-24T19:38:02.812Z,95.00
2018-05-24T19:40:06.034Z,95.10
2018-05-24T19:42:08.471Z,95.10
2018-05-24T19:44:10.963Z,95.20
2018-05-24T19:46:13.425Z,95.10
2018-05-24T19:48:16.732Z,95.20
2018-05-24T19:50:19.227Z,95.30
2018-05-24T19:52:21.632Z,95.40
2018-05-24T19:54:24.832Z,95.50
2018-05-24T19:56:27.264Z,95.40
2018-05-24T19:58:29.792Z,95.50
2018-05-24T20:00:32.262Z,95.50
2018-05-24T20:02:34.697Z,95.70
2018-05-24T20:04:37.156Z,95.80
2018-05-24T20:06:39.669Z,95.70
2018-05-24T20:08:42.136Z,96.10
2018-05-24T20:10:45.563Z,96.20
2018-05-24T20:12:48.096Z,96.30
2018-05-24T20:14:50.576Z,96.20
2018-05-24T20:16:52.997Z,97.20
2018-05-24T20:18:56.203Z,99.70
2018-05-24T20:20:59.417Z,99.90
2018-05-24T20:23:01.904Z,99.90
2018-05-24T20:25:05.068Z,99.20
2018-05-24T20:27:07.504Z,99.20
2018-05-24T20:29:10.733Z,99.90
2018-05-24T20:31:13.164Z,99.90
2018-05-24T20:33:16.374Z,99.90
2018-05-24T20:35:18.864Z,99.90
2018-05-24T20:37:21.300Z,99.90
2018-05-24T20:39:23.796Z,99.90
2018-05-24T20:41:26.278Z,99.90
2018-05-24T20:43:28.728Z,99.90
2018-05-24T20:45:32.210Z,99.90
2018-05-24T20:47:34.708Z,99.90
2018-05-24T20:49:37.157Z,99.90
2018-05-24T20:51:39.588Z,99.90
2018-05-24T20:53:42.032Z,99.90
2018-05-24T20:55:44.515Z,99.90
2018-05-24T20:57:46.936Z,99.90
2018-05-24T20:59:49.379Z,99.90
2018-05-24T21:01:52.635Z,99.90
2018-05-24T21:03:55.073Z,99.90
2018-05-24T21:05:57.509Z,99.90
2018-05-24T21:08:00.708Z,99.90
2018-05-24T21:10:03.144Z,99.90
2018-05-24T21:12:05.581Z,99.90
2018-05-24T21:14:08.026Z,99.90
2018-05-24T21:16:10.456Z,99.90
2018-05-24T21:18:12.888Z,99.90
2018-05-24T21:20:15.331Z,99.90
2018-05-24T21:22:17.761Z,99.90
2018-05-24T21:24:20.292Z,99.90
2018-05-24T21:26:22.768Z,99.90
2018-05-24T21:28:26.708Z,99.90
2018-05-24T21:30:29.257Z,99.90
2018-05-24T21:32:31.681Z,99.90
2018-05-24T21:34:34.184Z,99.90
2018-05-24T21:36:36.620Z,99.90
2018-05-24T21:38:39.837Z,99.90
2018-05-24T21:40:42.276Z,99.90
2018-05-24T21:42:46.424Z,99.90
2018-05-24T21:44:48.868Z,99.90
2018-05-24T21:46:51.365Z,99.90
2018-05-24T21:48:53.820Z,99.90
2018-05-24T21:50:56.282Z,99.90
2018-05-24T21:52:59.456Z,99.90
2018-05-24T21:55:01.896Z,99.90
2018-05-24T21:57:04.325Z,99.90
2018-05-24T21:59:06.774Z,99.90
2018-05-24T22:01:09.294Z,99.90
2018-05-24T22:03:11.836Z,99.90
2018-05-24T22:05:14.317Z,99.90
2018-05-24T22:07:16.781Z,99.90
2018-05-24T22:09:19.241Z,99.90
2018-05-24T22:11:21.676Z,99.90
2018-05-24T22:13:24.877Z,99.90
2018-05-24T22:15:27.386Z,99.90
2018-05-24T22:17:29.824Z,99.90
2018-05-24T22:19:32.268Z,99.90
2018-05-24T22:21:35.473Z,99.90
2018-05-24T22:23:37.965Z,99.90
2018-05-24T22:25:40.419Z,99.90
2018-05-24T22:27:42.912Z,99.90
2018-05-24T22:29:45.376Z,99.90
2018-05-24T22:31:47.812Z,99.90
2018-05-24T22:33:51.040Z,99.90
2018-05-24T22:35:53.480Z,99.90
2018-05-24T22:37:55.941Z,99.90
2018-05-24T22:39:59.168Z,99.90
2018-05-24T22:42:01.638Z,99.90
2018-05-24T22:44:04.078Z,99.90
2018-05-24T22:46:07.300Z,99.90
2018-05-24T22:48:09.748Z,99.90
2018-05-24T22:50:12.228Z,99.90
2018-05-24T22:52:14.669Z,99.90
2018-05-24T22:54:17.892Z,99.90
2018-05-24T22:56:20.344Z,99.90
2018-05-24T22:58:23.534Z,99.90
2018-05-24T23:00:25.992Z,99.90
2018-05-24T23:02:29.177Z,99.90
2018-05-24T23:04:31.630Z,99.90
2018-05-24T23:06:34.217Z,99.90
2018-05-24T23:08:37.445Z,99.90
2018-05-24T23:10:39.905Z,99.90
2018-05-24T23:12:42.346Z,99.90
2018-05-24T23:14:45.568Z,99.90
2018-05-24T23:16:48.003Z,99.90
2018-05-24T23:18:51.202Z,99.90
2018-05-24T23:20:53.690Z,99.90
2018-05-24T23:22:56.131Z,99.90
2018-05-24T23:24:59.349Z,99.90
2018-05-24T23:27:01.788Z,99.90
2018-05-24T23:29:04.225Z,99.90
2018-05-24T23:31:06.676Z,99.90
2018-05-24T23:33:09.128Z,99.90
2018-05-24T23:35:11.578Z,99.90
2018-05-24T23:37:14.014Z,99.90
2018-05-24T23:39:16.537Z,99.90
2018-05-24T23:41:18.996Z,99.90
2018-05-24T23:43:21.480Z,99.90
2018-05-24T23:45:23.930Z,99.90
2018-05-24T23:47:26.357Z,99.90
2018-05-24T23:49:28.796Z,99.90
2018-05-24T23:51:31.241Z,99.90
2018-05-24T23:53:33.733Z,99.90
2018-05-24T23:55:36.173Z,99.90
2018-05-24T23:57:38.601Z,99.90
2018-05-24T23:59:41.038Z,99.90
